Terminal Aerodrome Forecast
Issued by NWS

Home | Current Version | Previous Version | Text Only | Print | Product List | Glossary On
Versions: 1 2 3 4 5 6 7 8 9 10 11 12 13 14 15 16 17 18 19 20 21 22
000
FTUS43 KLSX 290500
TAFUIN
TAF
KUIN 290520Z 2906/3006 09005KT P6SM VCSH SCT040 BKN200
     FM291200 20008KT P6SM BKN035
     FM292000 20008KT P6SM VCTS BKN035CB
     FM300300 22007KT P6SM BKN035
      TEMPO 3003/3006 3SM TSRA BKN025CB=

USA.gov is the U.S. government's official web portal to all federal, state and local government web resources and services.